sensor_id;sensor_type;location;lat;lon;timestamp;P1;durP1;ratioP1;P2;durP2;ratioP2
27402;SDS011;14862;49.494;8.530;2023-04-24T00:00:40;2.00;;;1.70;;
27402;SDS011;14862;49.494;8.530;2023-04-24T00:03:06;2.67;;;2.00;;
27402;SDS011;14862;49.494;8.530;2023-04-24T00:05:31;2.78;;;1.92;;
27402;SDS011;14862;49.494;8.530;2023-04-24T00:07:57;2.05;;;1.85;;
27402;SDS011;14862;49.494;8.530;2023-04-24T00:10:23;3.55;;;2.45;;
27402;SDS011;14862;49.494;8.530;2023-04-24T00:12:48;2.53;;;2.13;;
27402;SDS011;14862;49.494;8.530;2023-04-24T00:15:13;3.75;;;2.15;;
27402;SDS011;14862;49.494;8.530;2023-04-24T00:17:38;3.83;;;2.33;;
27402;SDS011;14862;49.494;8.530;2023-04-24T00:20:04;3.55;;;1.58;;
27402;SDS011;14862;49.494;8.530;2023-04-24T00:22:31;2.33;;;1.65;;
27402;SDS011;14862;49.494;8.530;2023-04-24T00:24:57;3.28;;;1.48;;
27402;SDS011;14862;49.494;8.530;2023-04-24T00:27:22;2.90;;;1.73;;
27402;SDS011;14862;49.494;8.530;2023-04-24T00:29:47;2.42;;;1.70;;
27402;SDS011;14862;49.494;8.530;2023-04-24T00:32:13;2.03;;;1.75;;
27402;SDS011;14862;49.494;8.530;2023-04-24T00:34:38;3.53;;;1.65;;
27402;SDS011;14862;49.494;8.530;2023-04-24T00:37:05;2.05;;;1.50;;
27402;SDS011;14862;49.494;8.530;2023-04-24T00:39:31;2.28;;;1.80;;
27402;SDS011;14862;49.494;8.530;2023-04-24T00:41:56;7.30;;;1.60;;
27402;SDS011;14862;49.494;8.530;2023-04-24T00:44:21;2.50;;;1.35;;
27402;SDS011;14862;49.494;8.530;2023-04-24T00:46:47;1.77;;;1.40;;
27402;SDS011;14862;49.494;8.530;2023-04-24T00:49:16;3.25;;;1.35;;
27402;SDS011;14862;49.494;8.530;2023-04-24T00:51:42;2.05;;;1.30;;
27402;SDS011;14862;49.494;8.530;2023-04-24T00:54:10;1.65;;;1.52;;
27402;SDS011;14862;49.494;8.530;2023-04-24T00:56:36;2.47;;;1.52;;
27402;SDS011;14862;49.494;8.530;2023-04-24T00:59:01;5.13;;;1.92;;
27402;SDS011;14862;49.494;8.530;2023-04-24T01:01:26;3.58;;;1.58;;
27402;SDS011;14862;49.494;8.530;2023-04-24T01:03:51;4.30;;;1.77;;
27402;SDS011;14862;49.494;8.530;2023-04-24T01:06:18;3.35;;;1.70;;
27402;SDS011;14862;49.494;8.530;2023-04-24T01:08:43;2.47;;;1.40;;
27402;SDS011;14862;49.494;8.530;2023-04-24T01:11:10;3.60;;;1.45;;
27402;SDS011;14862;49.494;8.530;2023-04-24T01:13:36;4.07;;;1.52;;
27402;SDS011;14862;49.494;8.530;2023-04-24T01:16:01;2.87;;;2.00;;
27402;SDS011;14862;49.494;8.530;2023-04-24T01:18:27;3.97;;;1.80;;
27402;SDS011;14862;49.494;8.530;2023-04-24T01:21:02;3.65;;;1.83;;
27402;SDS011;14862;49.494;8.530;2023-04-24T01:23:28;3.50;;;1.60;;
27402;SDS011;14862;49.494;8.530;2023-04-24T01:25:54;2.70;;;1.60;;
27402;SDS011;14862;49.494;8.530;2023-04-24T01:28:19;2.00;;;1.15;;
27402;SDS011;14862;49.494;8.530;2023-04-24T01:30:44;1.58;;;1.42;;
27402;SDS011;14862;49.494;8.530;2023-04-24T01:33:10;7.30;;;1.92;;
27402;SDS011;14862;49.494;8.530;2023-04-24T01:35:35;3.03;;;1.48;;
27402;SDS011;14862;49.494;8.530;2023-04-24T01:38:01;1.98;;;1.77;;
27402;SDS011;14862;49.494;8.530;2023-04-24T01:40:26;1.85;;;1.60;;
27402;SDS011;14862;49.494;8.530;2023-04-24T01:42:51;5.93;;;1.75;;
27402;SDS011;14862;49.494;8.530;2023-04-24T01:45:17;5.10;;;1.75;;
27402;SDS011;14862;49.494;8.530;2023-04-24T01:47:42;3.83;;;1.55;;
27402;SDS011;14862;49.494;8.530;2023-04-24T01:50:09;4.03;;;1.80;;
27402;SDS011;14862;49.494;8.530;2023-04-24T01:52:34;2.38;;;1.80;;
27402;SDS011;14862;49.494;8.530;2023-04-24T01:55:01;2.55;;;1.95;;
27402;SDS011;14862;49.494;8.530;2023-04-24T01:57:26;3.17;;;1.70;;
27402;SDS011;14862;49.494;8.530;2023-04-24T01:59:52;2.35;;;1.98;;
27402;SDS011;14862;49.494;8.530;2023-04-24T02:02:17;4.43;;;2.72;;
27402;SDS011;14862;49.494;8.530;2023-04-24T02:04:42;3.47;;;1.95;;
27402;SDS011;14862;49.494;8.530;2023-04-24T02:07:08;5.18;;;1.75;;
27402;SDS011;14862;49.494;8.530;2023-04-24T02:09:33;2.42;;;1.80;;
27402;SDS011;14862;49.494;8.530;2023-04-24T02:11:58;7.68;;;2.38;;
27402;SDS011;14862;49.494;8.530;2023-04-24T02:14:23;4.45;;;2.15;;
27402;SDS011;14862;49.494;8.530;2023-04-24T02:16:49;3.40;;;2.05;;
27402;SDS011;14862;49.494;8.530;2023-04-24T02:19:14;2.28;;;1.60;;
27402;SDS011;14862;49.494;8.530;2023-04-24T02:21:39;2.70;;;1.87;;
27402;SDS011;14862;49.494;8.530;2023-04-24T02:24:04;4.13;;;1.53;;
27402;SDS011;14862;49.494;8.530;2023-04-24T02:26:30;2.92;;;1.60;;
27402;SDS011;14862;49.494;8.530;2023-04-24T02:28:56;3.13;;;1.42;;
27402;SDS011;14862;49.494;8.530;2023-04-24T02:31:21;2.47;;;1.50;;
27402;SDS011;14862;49.494;8.530;2023-04-24T02:33:47;1.93;;;1.40;;
27402;SDS011;14862;49.494;8.530;2023-04-24T02:36:12;3.20;;;1.40;;
27402;SDS011;14862;49.494;8.530;2023-04-24T02:38:38;5.13;;;1.60;;
27402;SDS011;14862;49.494;8.530;2023-04-24T02:41:03;2.28;;;1.40;;
27402;SDS011;14862;49.494;8.530;2023-04-24T02:43:31;3.00;;;1.30;;
27402;SDS011;14862;49.494;8.530;2023-04-24T02:45:56;5.97;;;1.50;;
27402;SDS011;14862;49.494;8.530;2023-04-24T02:48:21;2.53;;;1.60;;
27402;SDS011;14862;49.494;8.530;2023-04-24T02:50:46;2.28;;;1.30;;
27402;SDS011;14862;49.494;8.530;2023-04-24T02:53:12;3.40;;;1.40;;
27402;SDS011;14862;49.494;8.530;2023-04-24T02:55:37;1.20;;;1.10;;
27402;SDS011;14862;49.494;8.530;2023-04-24T02:58:03;5.50;;;2.03;;
27402;SDS011;14862;49.494;8.530;2023-04-24T03:00:28;1.40;;;1.15;;
27402;SDS011;14862;49.494;8.530;2023-04-24T03:02:53;3.27;;;1.30;;
27402;SDS011;14862;49.494;8.530;2023-04-24T03:05:18;1.73;;;1.10;;
27402;SDS011;14862;49.494;8.530;2023-04-24T03:07:43;1.75;;;1.30;;
27402;SDS011;14862;49.494;8.530;2023-04-24T03:10:10;2.15;;;1.30;;
27402;SDS011;14862;49.494;8.530;2023-04-24T03:12:35;2.60;;;1.30;;
27402;SDS011;14862;49.494;8.530;2023-04-24T03:15:00;2.25;;;1.45;;
27402;SDS011;14862;49.494;8.530;2023-04-24T03:17:26;4.47;;;1.70;;
27402;SDS011;14862;49.494;8.530;2023-04-24T03:19:51;2.90;;;1.50;;
27402;SDS011;14862;49.494;8.530;2023-04-24T03:22:16;2.63;;;1.63;;
27402;SDS011;14862;49.494;8.530;2023-04-24T03:24:41;2.63;;;1.30;;
27402;SDS011;14862;49.494;8.530;2023-04-24T03:27:06;2.57;;;1.70;;
27402;SDS011;14862;49.494;8.530;2023-04-24T03:29:32;3.25;;;1.65;;
27402;SDS011;14862;49.494;8.530;2023-04-24T03:31:57;5.60;;;1.83;;
27402;SDS011;14862;49.494;8.530;2023-04-24T03:34:22;4.30;;;1.93;;
27402;SDS011;14862;49.494;8.530;2023-04-24T03:36:47;2.00;;;1.73;;
27402;SDS011;14862;49.494;8.530;2023-04-24T03:39:13;6.50;;;2.33;;
27402;SDS011;14862;49.494;8.530;2023-04-24T03:41:38;2.60;;;2.00;;
27402;SDS011;14862;49.494;8.530;2023-04-24T03:44:03;2.08;;;1.90;;
27402;SDS011;14862;49.494;8.530;2023-04-24T03:46:28;4.22;;;1.63;;
27402;SDS011;14862;49.494;8.530;2023-04-24T03:48:53;2.20;;;1.70;;
27402;SDS011;14862;49.494;8.530;2023-04-24T03:51:19;2.47;;;1.73;;
27402;SDS011;14862;49.494;8.530;2023-04-24T03:53:44;4.25;;;2.03;;
27402;SDS011;14862;49.494;8.530;2023-04-24T03:56:09;2.78;;;1.73;;
27402;SDS011;14862;49.494;8.530;2023-04-24T03:58:35;2.90;;;2.00;;
27402;SDS011;14862;49.494;8.530;2023-04-24T04:01:00;2.05;;;1.77;;
27402;SDS011;14862;49.494;8.530;2023-04-24T04:03:25;1.80;;;1.70;;
27402;SDS011;14862;49.494;8.530;2023-04-24T04:05:50;4.50;;;2.03;;
27402;SDS011;14862;49.494;8.530;2023-04-24T04:08:16;1.83;;;1.70;;
27402;SDS011;14862;49.494;8.530;2023-04-24T04:10:41;1.70;;;1.60;;
27402;SDS011;14862;49.494;8.530;2023-04-24T04:13:06;1.90;;;1.70;;
27402;SDS011;14862;49.494;8.530;2023-04-24T04:15:31;2.40;;;2.10;;
27402;SDS011;14862;49.494;8.530;2023-04-24T04:17:56;4.07;;;2.78;;
27402;SDS011;14862;49.494;8.530;2023-04-24T04:20:22;3.97;;;1.58;;
27402;SDS011;14862;49.494;8.530;2023-04-24T04:22:47;3.17;;;1.90;;
27402;SDS011;14862;49.494;8.530;2023-04-24T04:25:12;2.50;;;1.93;;
27402;SDS011;14862;49.494;8.530;2023-04-24T04:27:38;3.05;;;2.40;;
27402;SDS011;14862;49.494;8.530;2023-04-24T04:30:04;3.90;;;2.28;;
27402;SDS011;14862;49.494;8.530;2023-04-24T04:32:32;4.88;;;2.28;;
27402;SDS011;14862;49.494;8.530;2023-04-24T04:34:58;3.53;;;2.28;;
27402;SDS011;14862;49.494;8.530;2023-04-24T04:37:23;2.85;;;2.53;;
27402;SDS011;14862;49.494;8.530;2023-04-24T04:39:48;3.83;;;2.58;;
27402;SDS011;14862;49.494;8.530;2023-04-24T04:42:14;2.95;;;2.65;;
27402;SDS011;14862;49.494;8.530;2023-04-24T04:44:40;4.35;;;2.70;;
27402;SDS011;14862;49.494;8.530;2023-04-24T04:47:05;3.60;;;3.10;;
27402;SDS011;14862;49.494;8.530;2023-04-24T04:49:32;7.57;;;3.08;;
27402;SDS011;14862;49.494;8.530;2023-04-24T04:51:57;3.40;;;3.03;;
27402;SDS011;14862;49.494;8.530;2023-04-24T04:54:22;3.45;;;2.88;;
27402;SDS011;14862;49.494;8.530;2023-04-24T04:56:49;3.47;;;3.17;;
27402;SDS011;14862;49.494;8.530;2023-04-24T04:59:14;5.80;;;2.63;;
27402;SDS011;14862;49.494;8.530;2023-04-24T05:01:39;4.00;;;2.10;;
27402;SDS011;14862;49.494;8.530;2023-04-24T05:04:05;2.10;;;1.83;;
27402;SDS011;14862;49.494;8.530;2023-04-24T05:06:30;2.73;;;2.47;;
27402;SDS011;14862;49.494;8.530;2023-04-24T05:08:55;2.85;;;1.65;;
27402;SDS011;14862;49.494;8.530;2023-04-24T05:11:22;1.98;;;1.70;;
27402;SDS011;14862;49.494;8.530;2023-04-24T05:13:47;4.00;;;2.45;;
27402;SDS011;14862;49.494;8.530;2023-04-24T05:16:12;2.33;;;2.07;;
27402;SDS011;14862;49.494;8.530;2023-04-24T05:18:38;2.33;;;1.73;;
27402;SDS011;14862;49.494;8.530;2023-04-24T05:21:03;2.90;;;1.70;;
27402;SDS011;14862;49.494;8.530;2023-04-24T05:23:28;2.08;;;1.85;;
27402;SDS011;14862;49.494;8.530;2023-04-24T05:25:53;3.83;;;2.17;;
27402;SDS011;14862;49.494;8.530;2023-04-24T05:28:18;1.87;;;1.73;;
27402;SDS011;14862;49.494;8.530;2023-04-24T05:30:44;1.92;;;1.80;;
27402;SDS011;14862;49.494;8.530;2023-04-24T05:33:09;2.00;;;1.60;;
27402;SDS011;14862;49.494;8.530;2023-04-24T05:35:35;2.00;;;1.90;;
27402;SDS011;14862;49.494;8.530;2023-04-24T05:38:00;3.05;;;2.30;;
27402;SDS011;14862;49.494;8.530;2023-04-24T05:40:26;3.08;;;2.20;;
27402;SDS011;14862;49.494;8.530;2023-04-24T05:42:51;3.08;;;1.73;;
27402;SDS011;14862;49.494;8.530;2023-04-24T05:45:16;4.07;;;2.42;;
27402;SDS011;14862;49.494;8.530;2023-04-24T05:47:42;2.80;;;2.10;;
27402;SDS011;14862;49.494;8.530;2023-04-24T05:50:08;2.97;;;2.58;;
27402;SDS011;14862;49.494;8.530;2023-04-24T05:52:34;2.92;;;2.00;;
27402;SDS011;14862;49.494;8.530;2023-04-24T05:54:59;4.70;;;2.23;;
27402;SDS011;14862;49.494;8.530;2023-04-24T05:57:24;3.77;;;2.27;;
27402;SDS011;14862;49.494;8.530;2023-04-24T05:59:49;4.18;;;2.60;;
27402;SDS011;14862;49.494;8.530;2023-04-24T06:02:14;3.70;;;2.47;;
27402;SDS011;14862;49.494;8.530;2023-04-24T06:04:40;4.28;;;2.35;;
27402;SDS011;14862;49.494;8.530;2023-04-24T06:07:06;5.60;;;3.15;;
27402;SDS011;14862;49.494;8.530;2023-04-24T06:09:31;5.43;;;2.70;;
27402;SDS011;14862;49.494;8.530;2023-04-24T06:11:57;9.20;;;3.40;;
27402;SDS011;14862;49.494;8.530;2023-04-24T06:14:23;3.90;;;2.70;;
27402;SDS011;14862;49.494;8.530;2023-04-24T06:16:48;4.30;;;3.00;;
27402;SDS011;14862;49.494;8.530;2023-04-24T06:19:13;3.77;;;2.70;;
27402;SDS011;14862;49.494;8.530;2023-04-24T06:21:39;3.23;;;2.87;;
27402;SDS011;14862;49.494;8.530;2023-04-24T06:24:04;5.63;;;2.83;;
27402;SDS011;14862;49.494;8.530;2023-04-24T06:26:29;3.80;;;2.80;;
27402;SDS011;14862;49.494;8.530;2023-04-24T06:28:54;3.28;;;2.55;;
27402;SDS011;14862;49.494;8.530;2023-04-24T06:31:20;3.65;;;2.90;;
27402;SDS011;14862;49.494;8.530;2023-04-24T06:33:45;4.90;;;2.83;;
27402;SDS011;14862;49.494;8.530;2023-04-24T06:36:10;4.88;;;2.78;;
27402;SDS011;14862;49.494;8.530;2023-04-24T06:38:36;4.10;;;3.10;;
27402;SDS011;14862;49.494;8.530;2023-04-24T06:41:01;4.18;;;3.22;;
27402;SDS011;14862;49.494;8.530;2023-04-24T06:43:26;6.82;;;3.20;;
27402;SDS011;14862;49.494;8.530;2023-04-24T06:45:51;4.00;;;3.17;;
27402;SDS011;14862;49.494;8.530;2023-04-24T06:48:17;4.78;;;3.03;;
27402;SDS011;14862;49.494;8.530;2023-04-24T06:50:42;4.03;;;2.50;;
27402;SDS011;14862;49.494;8.530;2023-04-24T06:53:07;2.50;;;2.30;;
27402;SDS011;14862;49.494;8.530;2023-04-24T06:55:33;2.40;;;1.80;;
27402;SDS011;14862;49.494;8.530;2023-04-24T06:57:58;3.95;;;2.15;;
27402;SDS011;14862;49.494;8.530;2023-04-24T07:00:23;3.53;;;1.83;;
27402;SDS011;14862;49.494;8.530;2023-04-24T07:02:49;2.78;;;1.70;;
27402;SDS011;14862;49.494;8.530;2023-04-24T07:05:14;1.77;;;1.67;;
27402;SDS011;14862;49.494;8.530;2023-04-24T07:07:40;5.45;;;1.40;;
27402;SDS011;14862;49.494;8.530;2023-04-24T07:10:05;5.18;;;1.83;;
27402;SDS011;14862;49.494;8.530;2023-04-24T07:12:30;2.05;;;1.23;;
27402;SDS011;14862;49.494;8.530;2023-04-24T07:14:57;1.10;;;1.00;;
27402;SDS011;14862;49.494;8.530;2023-04-24T07:17:22;1.75;;;1.50;;
27402;SDS011;14862;49.494;8.530;2023-04-24T07:19:47;1.30;;;1.20;;
27402;SDS011;14862;49.494;8.530;2023-04-24T07:22:12;3.88;;;1.20;;
27402;SDS011;14862;49.494;8.530;2023-04-24T07:24:42;1.95;;;1.10;;
27402;SDS011;14862;49.494;8.530;2023-04-24T07:27:08;1.98;;;0.80;;
27402;SDS011;14862;49.494;8.530;2023-04-24T07:29:33;2.47;;;1.30;;
27402;SDS011;14862;49.494;8.530;2023-04-24T07:31:58;3.05;;;1.10;;
27402;SDS011;14862;49.494;8.530;2023-04-24T07:34:23;3.07;;;0.90;;
27402;SDS011;14862;49.494;8.530;2023-04-24T07:36:49;0.90;;;0.90;;
27402;SDS011;14862;49.494;8.530;2023-04-24T07:39:14;1.10;;;1.00;;
27402;SDS011;14862;49.494;8.530;2023-04-24T07:41:39;3.60;;;1.20;;
27402;SDS011;14862;49.494;8.530;2023-04-24T07:44:05;3.30;;;1.23;;
27402;SDS011;14862;49.494;8.530;2023-04-24T07:46:30;1.30;;;1.20;;
27402;SDS011;14862;49.494;8.530;2023-04-24T07:48:55;2.17;;;1.85;;
27402;SDS011;14862;49.494;8.530;2023-04-24T07:51:21;3.83;;;1.50;;
27402;SDS011;14862;49.494;8.530;2023-04-24T07:53:46;2.47;;;1.00;;
27402;SDS011;14862;49.494;8.530;2023-04-24T07:56:12;1.10;;;0.93;;
27402;SDS011;14862;49.494;8.530;2023-04-24T07:58:37;2.63;;;1.20;;
27402;SDS011;14862;49.494;8.530;2023-04-24T08:01:02;3.40;;;1.40;;
27402;SDS011;14862;49.494;8.530;2023-04-24T08:03:27;1.48;;;1.20;;
27402;SDS011;14862;49.494;8.530;2023-04-24T08:05:53;2.07;;;1.30;;
27402;SDS011;14862;49.494;8.530;2023-04-24T08:08:20;1.40;;;1.27;;
27402;SDS011;14862;49.494;8.530;2023-04-24T08:10:46;2.33;;;1.33;;
27402;SDS011;14862;49.494;8.530;2023-04-24T08:13:11;2.92;;;1.50;;
27402;SDS011;14862;49.494;8.530;2023-04-24T08:15:36;1.77;;;1.23;;
27402;SDS011;14862;49.494;8.530;2023-04-24T08:18:02;1.30;;;1.20;;
27402;SDS011;14862;49.494;8.530;2023-04-24T08:20:27;3.42;;;1.20;;
27402;SDS011;14862;49.494;8.530;2023-04-24T08:22:52;2.97;;;1.23;;
27402;SDS011;14862;49.494;8.530;2023-04-24T08:25:17;1.70;;;1.13;;
27402;SDS011;14862;49.494;8.530;2023-04-24T08:27:44;3.58;;;1.20;;
27402;SDS011;14862;49.494;8.530;2023-04-24T08:30:09;2.38;;;1.40;;
27402;SDS011;14862;49.494;8.530;2023-04-24T08:32:35;1.70;;;1.20;;
27402;SDS011;14862;49.494;8.530;2023-04-24T08:35:00;4.45;;;1.80;;
27402;SDS011;14862;49.494;8.530;2023-04-24T08:37:26;3.97;;;1.60;;
27402;SDS011;14862;49.494;8.530;2023-04-24T08:39:52;2.42;;;1.27;;
27402;SDS011;14862;49.494;8.530;2023-04-24T08:42:17;2.10;;;1.50;;
27402;SDS011;14862;49.494;8.530;2023-04-24T08:44:43;3.97;;;1.48;;
27402;SDS011;14862;49.494;8.530;2023-04-24T08:47:09;2.90;;;1.63;;
27402;SDS011;14862;49.494;8.530;2023-04-24T08:49:35;2.70;;;1.50;;
27402;SDS011;14862;49.494;8.530;2023-04-24T08:52:01;2.30;;;1.63;;
27402;SDS011;14862;49.494;8.530;2023-04-24T08:54:27;3.67;;;1.65;;
27402;SDS011;14862;49.494;8.530;2023-04-24T08:56:53;2.38;;;1.70;;
27402;SDS011;14862;49.494;8.530;2023-04-24T08:59:19;2.40;;;1.40;;
27402;SDS011;14862;49.494;8.530;2023-04-24T09:01:45;3.13;;;1.70;;
27402;SDS011;14862;49.494;8.530;2023-04-24T09:04:10;2.22;;;1.60;;
27402;SDS011;14862;49.494;8.530;2023-04-24T09:06:37;2.50;;;2.03;;
27402;SDS011;14862;49.494;8.530;2023-04-24T09:09:02;3.88;;;1.67;;
27402;SDS011;14862;49.494;8.530;2023-04-24T09:11:29;5.40;;;1.73;;
27402;SDS011;14862;49.494;8.530;2023-04-24T09:13:55;4.57;;;2.08;;
27402;SDS011;14862;49.494;8.530;2023-04-24T09:16:21;1.50;;;1.40;;
27402;SDS011;14862;49.494;8.530;2023-04-24T09:18:48;5.03;;;2.28;;
27402;SDS011;14862;49.494;8.530;2023-04-24T09:21:13;2.33;;;1.90;;
27402;SDS011;14862;49.494;8.530;2023-04-24T09:23:39;3.78;;;1.70;;
27402;SDS011;14862;49.494;8.530;2023-04-24T09:26:04;5.35;;;1.88;;
27402;SDS011;14862;49.494;8.530;2023-04-24T09:28:37;5.47;;;1.80;;
27402;SDS011;14862;49.494;8.530;2023-04-24T09:31:03;3.08;;;1.92;;
27402;SDS011;14862;49.494;8.530;2023-04-24T09:33:29;2.50;;;1.40;;
27402;SDS011;14862;49.494;8.530;2023-04-24T09:35:54;2.83;;;1.75;;
27402;SDS011;14862;49.494;8.530;2023-04-24T09:38:20;3.65;;;1.52;;
27402;SDS011;14862;49.494;8.530;2023-04-24T09:40:55;1.83;;;1.30;;
27402;SDS011;14862;49.494;8.530;2023-04-24T09:43:20;5.45;;;2.13;;
27402;SDS011;14862;49.494;8.530;2023-04-24T09:45:45;4.80;;;1.92;;
27402;SDS011;14862;49.494;8.530;2023-04-24T09:48:10;1.92;;;1.80;;
27402;SDS011;14862;49.494;8.530;2023-04-24T09:50:36;2.08;;;1.80;;
27402;SDS011;14862;49.494;8.530;2023-04-24T09:53:02;5.47;;;2.05;;
27402;SDS011;14862;49.494;8.530;2023-04-24T09:55:28;4.47;;;2.05;;
27402;SDS011;14862;49.494;8.530;2023-04-24T09:58:00;4.07;;;2.30;;
27402;SDS011;14862;49.494;8.530;2023-04-24T10:00:26;4.43;;;2.40;;
27402;SDS011;14862;49.494;8.530;2023-04-24T10:02:59;2.65;;;2.20;;
27402;SDS011;14862;49.494;8.530;2023-04-24T10:05:31;5.50;;;2.35;;
27402;SDS011;14862;49.494;8.530;2023-04-24T10:08:01;6.65;;;2.33;;
27402;SDS011;14862;49.494;8.530;2023-04-24T10:10:26;3.75;;;1.80;;
27402;SDS011;14862;49.494;8.530;2023-04-24T10:12:52;3.55;;;1.80;;
27402;SDS011;14862;49.494;8.530;2023-04-24T10:15:17;4.05;;;2.05;;
27402;SDS011;14862;49.494;8.530;2023-04-24T10:17:46;3.80;;;2.38;;
27402;SDS011;14862;49.494;8.530;2023-04-24T10:20:17;2.05;;;1.80;;
27402;SDS011;14862;49.494;8.530;2023-04-24T10:22:42;5.97;;;1.80;;
27402;SDS011;14862;49.494;8.530;2023-04-24T10:25:07;2.85;;;1.48;;
27402;SDS011;14862;49.494;8.530;2023-04-24T10:27:33;5.15;;;1.50;;
27402;SDS011;14862;49.494;8.530;2023-04-24T10:30:00;1.80;;;1.70;;
27402;SDS011;14862;49.494;8.530;2023-04-24T10:32:25;3.38;;;1.92;;
27402;SDS011;14862;49.494;8.530;2023-04-24T10:34:51;2.63;;;1.33;;
27402;SDS011;14862;49.494;8.530;2023-04-24T10:37:16;2.80;;;1.30;;
27402;SDS011;14862;49.494;8.530;2023-04-24T10:39:41;3.30;;;1.63;;
27402;SDS011;14862;49.494;8.530;2023-04-24T10:42:14;4.07;;;1.48;;
27402;SDS011;14862;49.494;8.530;2023-04-24T10:44:40;3.47;;;1.55;;
27402;SDS011;14862;49.494;8.530;2023-04-24T10:47:05;1.65;;;1.38;;
27402;SDS011;14862;49.494;8.530;2023-04-24T10:49:31;1.58;;;1.48;;
27402;SDS011;14862;49.494;8.530;2023-04-24T10:52:00;1.98;;;1.73;;
27402;SDS011;14862;49.494;8.530;2023-04-24T10:56:51;1.85;;;1.52;;
27402;SDS011;14862;49.494;8.530;2023-04-24T10:59:34;1.88;;;1.67;;
27402;SDS011;14862;49.494;8.530;2023-04-24T11:01:59;3.55;;;1.58;;
27402;SDS011;14862;49.494;8.530;2023-04-24T11:04:32;3.20;;;1.90;;
27402;SDS011;14862;49.494;8.530;2023-04-24T11:06:57;4.07;;;2.03;;
27402;SDS011;14862;49.494;8.530;2023-04-24T11:09:25;2.00;;;1.80;;
27402;SDS011;14862;49.494;8.530;2023-04-24T11:11:51;3.08;;;1.77;;
27402;SDS011;14862;49.494;8.530;2023-04-24T11:14:27;3.10;;;2.20;;
27402;SDS011;14862;49.494;8.530;2023-04-24T11:16:52;3.05;;;2.28;;
27402;SDS011;14862;49.494;8.530;2023-04-24T11:19:20;4.22;;;2.17;;
27402;SDS011;14862;49.494;8.530;2023-04-24T11:21:47;2.10;;;1.90;;
27402;SDS011;14862;49.494;8.530;2023-04-24T11:27:06;2.73;;;1.87;;
27402;SDS011;14862;49.494;8.530;2023-04-24T11:29:41;5.22;;;2.13;;
27402;SDS011;14862;49.494;8.530;2023-04-24T11:34:50;4.93;;;2.40;;
27402;SDS011;14862;49.494;8.530;2023-04-24T11:37:16;5.05;;;2.50;;
27402;SDS011;14862;49.494;8.530;2023-04-24T11:39:41;5.68;;;2.80;;
27402;SDS011;14862;49.494;8.530;2023-04-24T11:42:07;6.40;;;2.53;;
27402;SDS011;14862;49.494;8.530;2023-04-24T11:44:33;4.95;;;2.88;;
27402;SDS011;14862;49.494;8.530;2023-04-24T11:46:58;4.55;;;2.55;;
27402;SDS011;14862;49.494;8.530;2023-04-24T11:49:23;5.70;;;3.30;;
27402;SDS011;14862;49.494;8.530;2023-04-24T11:51:49;5.77;;;2.60;;
27402;SDS011;14862;49.494;8.530;2023-04-24T11:54:14;4.55;;;2.53;;
27402;SDS011;14862;49.494;8.530;2023-04-24T11:56:44;5.40;;;2.90;;
27402;SDS011;14862;49.494;8.530;2023-04-24T11:59:09;4.80;;;2.25;;
27402;SDS011;14862;49.494;8.530;2023-04-24T12:01:47;4.22;;;2.63;;
27402;SDS011;14862;49.494;8.530;2023-04-24T12:04:12;7.10;;;2.83;;
27402;SDS011;14862;49.494;8.530;2023-04-24T12:06:38;4.43;;;2.53;;
27402;SDS011;14862;49.494;8.530;2023-04-24T12:09:04;4.68;;;2.65;;
27402;SDS011;14862;49.494;8.530;2023-04-24T12:11:29;3.53;;;2.50;;
27402;SDS011;14862;49.494;8.530;2023-04-24T12:13:55;5.75;;;2.58;;
27402;SDS011;14862;49.494;8.530;2023-04-24T12:16:20;4.22;;;2.38;;
27402;SDS011;14862;49.494;8.530;2023-04-24T12:18:45;7.10;;;2.50;;
27402;SDS011;14862;49.494;8.530;2023-04-24T12:21:18;7.22;;;2.45;;
27402;SDS011;14862;49.494;8.530;2023-04-24T12:23:44;4.93;;;2.58;;
27402;SDS011;14862;49.494;8.530;2023-04-24T12:26:16;4.82;;;2.40;;
27402;SDS011;14862;49.494;8.530;2023-04-24T12:28:41;3.95;;;2.70;;
27402;SDS011;14862;49.494;8.530;2023-04-24T12:31:07;3.88;;;2.60;;
27402;SDS011;14862;49.494;8.530;2023-04-24T12:33:33;4.85;;;2.95;;
27402;SDS011;14862;49.494;8.530;2023-04-24T12:35:58;6.03;;;2.38;;
27402;SDS011;14862;49.494;8.530;2023-04-24T12:38:25;4.43;;;2.47;;
27402;SDS011;14862;49.494;8.530;2023-04-24T12:41:12;6.80;;;2.58;;
27402;SDS011;14862;49.494;8.530;2023-04-24T12:43:36;4.65;;;2.78;;
27402;SDS011;14862;49.494;8.530;2023-04-24T12:46:02;3.60;;;2.10;;
27402;SDS011;14862;49.494;8.530;2023-04-24T12:48:27;4.18;;;2.72;;
27402;SDS011;14862;49.494;8.530;2023-04-24T12:50:52;6.47;;;2.63;;
27402;SDS011;14862;49.494;8.530;2023-04-24T12:53:21;8.82;;;3.03;;
27402;SDS011;14862;49.494;8.530;2023-04-24T12:55:51;7.50;;;3.35;;
27402;SDS011;14862;49.494;8.530;2023-04-24T12:58:20;3.65;;;2.40;;
27402;SDS011;14862;49.494;8.530;2023-04-24T13:00:46;5.65;;;2.65;;
27402;SDS011;14862;49.494;8.530;2023-04-24T13:03:11;3.67;;;2.40;;
27402;SDS011;14862;49.494;8.530;2023-04-24T13:05:36;8.63;;;2.75;;
27402;SDS011;14862;49.494;8.530;2023-04-24T13:08:01;3.05;;;2.30;;
27402;SDS011;14862;49.494;8.530;2023-04-24T13:10:27;3.80;;;2.67;;
27402;SDS011;14862;49.494;8.530;2023-04-24T13:12:52;4.22;;;2.55;;
27402;SDS011;14862;49.494;8.530;2023-04-24T13:15:17;4.78;;;2.42;;
27402;SDS011;14862;49.494;8.530;2023-04-24T13:17:43;3.67;;;3.25;;
27402;SDS011;14862;49.494;8.530;2023-04-24T13:20:08;6.07;;;2.50;;
27402;SDS011;14862;49.494;8.530;2023-04-24T13:22:33;5.88;;;3.05;;
27402;SDS011;14862;49.494;8.530;2023-04-24T13:24:58;3.73;;;2.73;;
27402;SDS011;14862;49.494;8.530;2023-04-24T13:27:24;4.57;;;2.33;;
27402;SDS011;14862;49.494;8.530;2023-04-24T13:29:49;3.55;;;2.45;;
27402;SDS011;14862;49.494;8.530;2023-04-24T13:32:16;4.70;;;2.83;;
27402;SDS011;14862;49.494;8.530;2023-04-24T13:34:42;4.18;;;2.65;;
27402;SDS011;14862;49.494;8.530;2023-04-24T13:37:07;7.60;;;2.63;;
27402;SDS011;14862;49.494;8.530;2023-04-24T13:39:32;4.10;;;2.67;;
27402;SDS011;14862;49.494;8.530;2023-04-24T13:41:58;4.13;;;2.17;;
27402;SDS011;14862;49.494;8.530;2023-04-24T13:44:23;5.45;;;2.40;;
27402;SDS011;14862;49.494;8.530;2023-04-24T13:46:49;6.30;;;2.78;;
27402;SDS011;14862;49.494;8.530;2023-04-24T13:49:15;4.20;;;2.28;;
27402;SDS011;14862;49.494;8.530;2023-04-24T13:51:40;4.13;;;2.33;;
27402;SDS011;14862;49.494;8.530;2023-04-24T13:54:05;4.50;;;2.80;;
27402;SDS011;14862;49.494;8.530;2023-04-24T13:56:31;5.70;;;2.58;;
27402;SDS011;14862;49.494;8.530;2023-04-24T13:58:56;3.25;;;2.70;;
27402;SDS011;14862;49.494;8.530;2023-04-24T14:01:21;4.53;;;2.72;;
27402;SDS011;14862;49.494;8.530;2023-04-24T14:03:50;4.80;;;2.90;;
27402;SDS011;14862;49.494;8.530;2023-04-24T14:06:16;5.43;;;3.08;;
27402;SDS011;14862;49.494;8.530;2023-04-24T14:08:41;4.43;;;2.45;;
27402;SDS011;14862;49.494;8.530;2023-04-24T14:11:06;3.90;;;2.65;;
27402;SDS011;14862;49.494;8.530;2023-04-24T14:13:32;4.75;;;2.67;;
27402;SDS011;14862;49.494;8.530;2023-04-24T14:15:57;3.63;;;2.63;;
27402;SDS011;14862;49.494;8.530;2023-04-24T14:18:23;2.78;;;2.40;;
27402;SDS011;14862;49.494;8.530;2023-04-24T14:20:48;5.18;;;2.75;;
27402;SDS011;14862;49.494;8.530;2023-04-24T14:23:13;5.40;;;2.50;;
27402;SDS011;14862;49.494;8.530;2023-04-24T14:25:38;6.38;;;2.60;;
27402;SDS011;14862;49.494;8.530;2023-04-24T14:28:05;5.05;;;2.60;;
27402;SDS011;14862;49.494;8.530;2023-04-24T14:30:30;4.32;;;2.28;;
27402;SDS011;14862;49.494;8.530;2023-04-24T14:32:56;3.63;;;2.58;;
27402;SDS011;14862;49.494;8.530;2023-04-24T14:35:21;6.30;;;2.63;;
27402;SDS011;14862;49.494;8.530;2023-04-24T14:37:46;9.95;;;4.10;;
27402;SDS011;14862;49.494;8.530;2023-04-24T14:40:13;3.75;;;2.47;;
27402;SDS011;14862;49.494;8.530;2023-04-24T14:42:38;8.27;;;2.72;;
27402;SDS011;14862;49.494;8.530;2023-04-24T14:45:03;7.87;;;2.67;;
27402;SDS011;14862;49.494;8.530;2023-04-24T14:47:29;5.45;;;3.03;;